sensor_id;sensor_type;location;lat;lon;timestamp;P1;durP1;ratioP1;P2;durP2;ratioP2
11084;SDS011;5596;46.826;8.650;2023-03-11T00:01:45;0.50;;;0.50;;
11084;SDS011;5596;46.826;8.650;2023-03-11T00:04:12;0.50;;;0.50;;
11084;SDS011;5596;46.826;8.650;2023-03-11T00:06:39;0.50;;;0.50;;
11084;SDS011;5596;46.826;8.650;2023-03-11T00:09:06;0.40;;;0.40;;
11084;SDS011;5596;46.826;8.650;2023-03-11T00:11:34;0.97;;;0.53;;
11084;SDS011;5596;46.826;8.650;2023-03-11T00:14:01;0.40;;;0.40;;
11084;SDS011;5596;46.826;8.650;2023-03-11T00:16:28;0.70;;;0.60;;
11084;SDS011;5596;46.826;8.650;2023-03-11T00:18:57;0.70;;;0.70;;
11084;SDS011;5596;46.826;8.650;2023-03-11T00:21:24;0.53;;;0.53;;
11084;SDS011;5596;46.826;8.650;2023-03-11T00:23:51;0.80;;;0.80;;
11084;SDS011;5596;46.826;8.650;2023-03-11T00:26:19;0.70;;;0.70;;
11084;SDS011;5596;46.826;8.650;2023-03-11T00:28:46;1.60;;;0.63;;
11084;SDS011;5596;46.826;8.650;2023-03-11T00:31:13;0.50;;;0.50;;
11084;SDS011;5596;46.826;8.650;2023-03-11T00:33:41;0.50;;;0.50;;
11084;SDS011;5596;46.826;8.650;2023-03-11T00:36:14;0.50;;;0.50;;
11084;SDS011;5596;46.826;8.650;2023-03-11T00:38:47;0.70;;;0.70;;
11084;SDS011;5596;46.826;8.650;2023-03-11T00:41:15;0.60;;;0.60;;
11084;SDS011;5596;46.826;8.650;2023-03-11T00:43:43;0.70;;;0.60;;
11084;SDS011;5596;46.826;8.650;2023-03-11T00:46:10;0.60;;;0.60;;
11084;SDS011;5596;46.826;8.650;2023-03-11T00:48:38;0.60;;;0.60;;
11084;SDS011;5596;46.826;8.650;2023-03-11T00:51:05;1.27;;;0.60;;
11084;SDS011;5596;46.826;8.650;2023-03-11T00:53:34;0.60;;;0.60;;
11084;SDS011;5596;46.826;8.650;2023-03-11T00:56:05;0.73;;;0.73;;
11084;SDS011;5596;46.826;8.650;2023-03-11T00:58:33;0.50;;;0.50;;
11084;SDS011;5596;46.826;8.650;2023-03-11T01:01:05;0.60;;;0.60;;
11084;SDS011;5596;46.826;8.650;2023-03-11T01:03:34;0.50;;;0.50;;
11084;SDS011;5596;46.826;8.650;2023-03-11T01:06:02;0.53;;;0.53;;
11084;SDS011;5596;46.826;8.650;2023-03-11T01:08:29;0.50;;;0.50;;
11084;SDS011;5596;46.826;8.650;2023-03-11T01:10:58;0.60;;;0.60;;
11084;SDS011;5596;46.826;8.650;2023-03-11T01:13:26;0.67;;;0.67;;
11084;SDS011;5596;46.826;8.650;2023-03-11T01:15:55;0.50;;;0.50;;
11084;SDS011;5596;46.826;8.650;2023-03-11T01:18:22;0.67;;;0.67;;
11084;SDS011;5596;46.826;8.650;2023-03-11T01:20:52;0.50;;;0.50;;
11084;SDS011;5596;46.826;8.650;2023-03-11T01:23:19;0.50;;;0.50;;
11084;SDS011;5596;46.826;8.650;2023-03-11T01:25:47;0.50;;;0.50;;
11084;SDS011;5596;46.826;8.650;2023-03-11T01:28:15;0.57;;;0.57;;
11084;SDS011;5596;46.826;8.650;2023-03-11T01:30:43;0.50;;;0.50;;
11084;SDS011;5596;46.826;8.650;2023-03-11T01:33:12;0.47;;;0.47;;
11084;SDS011;5596;46.826;8.650;2023-03-11T01:35:41;0.50;;;0.50;;
11084;SDS011;5596;46.826;8.650;2023-03-11T01:38:10;0.40;;;0.40;;
11084;SDS011;5596;46.826;8.650;2023-03-11T01:40:39;0.40;;;0.40;;
11084;SDS011;5596;46.826;8.650;2023-03-11T01:46:25;0.50;;;0.50;;
11084;SDS011;5596;46.826;8.650;2023-03-11T01:48:54;0.40;;;0.40;;
11084;SDS011;5596;46.826;8.650;2023-03-11T01:51:26;0.40;;;0.40;;
11084;SDS011;5596;46.826;8.650;2023-03-11T01:53:58;0.40;;;0.40;;
11084;SDS011;5596;46.826;8.650;2023-03-11T01:56:29;0.40;;;0.40;;
11084;SDS011;5596;46.826;8.650;2023-03-11T01:58:58;0.50;;;0.50;;
11084;SDS011;5596;46.826;8.650;2023-03-11T02:01:28;0.43;;;0.43;;
11084;SDS011;5596;46.826;8.650;2023-03-11T02:03:56;0.43;;;0.43;;
11084;SDS011;5596;46.826;8.650;2023-03-11T02:06:25;0.50;;;0.50;;
11084;SDS011;5596;46.826;8.650;2023-03-11T02:08:52;0.50;;;0.50;;
11084;SDS011;5596;46.826;8.650;2023-03-11T02:11:21;0.40;;;0.40;;
11084;SDS011;5596;46.826;8.650;2023-03-11T02:13:53;0.40;;;0.40;;
11084;SDS011;5596;46.826;8.650;2023-03-11T02:16:24;0.53;;;0.53;;
11084;SDS011;5596;46.826;8.650;2023-03-11T02:18:53;0.40;;;0.40;;
11084;SDS011;5596;46.826;8.650;2023-03-11T02:21:22;0.40;;;0.40;;
11084;SDS011;5596;46.826;8.650;2023-03-11T02:23:54;0.50;;;0.50;;
11084;SDS011;5596;46.826;8.650;2023-03-11T02:26:27;0.47;;;0.47;;
11084;SDS011;5596;46.826;8.650;2023-03-11T02:29:00;0.40;;;0.40;;
11084;SDS011;5596;46.826;8.650;2023-03-11T02:31:32;0.40;;;0.40;;
11084;SDS011;5596;46.826;8.650;2023-03-11T02:34:02;0.40;;;0.40;;
11084;SDS011;5596;46.826;8.650;2023-03-11T02:36:35;0.50;;;0.50;;
11084;SDS011;5596;46.826;8.650;2023-03-11T02:39:06;0.53;;;0.53;;
11084;SDS011;5596;46.826;8.650;2023-03-11T02:41:35;0.43;;;0.43;;
11084;SDS011;5596;46.826;8.650;2023-03-11T02:44:07;0.40;;;0.40;;
11084;SDS011;5596;46.826;8.650;2023-03-11T02:46:37;0.50;;;0.50;;
11084;SDS011;5596;46.826;8.650;2023-03-11T02:49:08;0.40;;;0.40;;
11084;SDS011;5596;46.826;8.650;2023-03-11T02:51:35;0.60;;;0.60;;
11084;SDS011;5596;46.826;8.650;2023-03-11T02:54:03;1.23;;;0.50;;
11084;SDS011;5596;46.826;8.650;2023-03-11T02:56:33;0.50;;;0.50;;
11084;SDS011;5596;46.826;8.650;2023-03-11T02:59:00;0.50;;;0.50;;
11084;SDS011;5596;46.826;8.650;2023-03-11T03:01:30;0.70;;;0.70;;
11084;SDS011;5596;46.826;8.650;2023-03-11T03:03:57;0.50;;;0.50;;
11084;SDS011;5596;46.826;8.650;2023-03-11T03:06:25;0.60;;;0.60;;
11084;SDS011;5596;46.826;8.650;2023-03-11T03:08:53;0.50;;;0.50;;
11084;SDS011;5596;46.826;8.650;2023-03-11T03:11:21;0.57;;;0.57;;
11084;SDS011;5596;46.826;8.650;2023-03-11T03:13:48;0.43;;;0.43;;
11084;SDS011;5596;46.826;8.650;2023-03-11T03:16:15;0.90;;;0.60;;
11084;SDS011;5596;46.826;8.650;2023-03-11T03:18:44;0.73;;;0.43;;
11084;SDS011;5596;46.826;8.650;2023-03-11T03:21:11;0.40;;;0.40;;
11084;SDS011;5596;46.826;8.650;2023-03-11T03:23:38;0.77;;;0.70;;
11084;SDS011;5596;46.826;8.650;2023-03-11T03:26:05;0.50;;;0.50;;
11084;SDS011;5596;46.826;8.650;2023-03-11T03:28:36;0.50;;;0.50;;
11084;SDS011;5596;46.826;8.650;2023-03-11T03:31:05;0.60;;;0.60;;
11084;SDS011;5596;46.826;8.650;2023-03-11T03:33:35;0.50;;;0.50;;
11084;SDS011;5596;46.826;8.650;2023-03-11T03:36:07;0.50;;;0.50;;
11084;SDS011;5596;46.826;8.650;2023-03-11T03:38:54;1.33;;;0.60;;
11084;SDS011;5596;46.826;8.650;2023-03-11T03:41:25;0.80;;;0.80;;
11084;SDS011;5596;46.826;8.650;2023-03-11T03:43:52;0.40;;;0.40;;
11084;SDS011;5596;46.826;8.650;2023-03-11T03:46:20;0.40;;;0.40;;
11084;SDS011;5596;46.826;8.650;2023-03-11T03:48:50;1.03;;;0.80;;
11084;SDS011;5596;46.826;8.650;2023-03-11T03:51:19;0.40;;;0.40;;
11084;SDS011;5596;46.826;8.650;2023-03-11T03:54:02;0.40;;;0.40;;
11084;SDS011;5596;46.826;8.650;2023-03-11T03:56:31;0.40;;;0.40;;
11084;SDS011;5596;46.826;8.650;2023-03-11T03:58:59;0.50;;;0.50;;
11084;SDS011;5596;46.826;8.650;2023-03-11T04:01:34;0.70;;;0.70;;
11084;SDS011;5596;46.826;8.650;2023-03-11T04:04:01;0.60;;;0.60;;
11084;SDS011;5596;46.826;8.650;2023-03-11T04:06:29;0.60;;;0.60;;
11084;SDS011;5596;46.826;8.650;2023-03-11T04:09:01;0.40;;;0.40;;
11084;SDS011;5596;46.826;8.650;2023-03-11T04:11:31;0.60;;;0.60;;
11084;SDS011;5596;46.826;8.650;2023-03-11T04:13:59;0.60;;;0.60;;
11084;SDS011;5596;46.826;8.650;2023-03-11T04:16:28;0.60;;;0.60;;
11084;SDS011;5596;46.826;8.650;2023-03-11T04:19:00;0.63;;;0.63;;
11084;SDS011;5596;46.826;8.650;2023-03-11T04:21:30;0.70;;;0.70;;
11084;SDS011;5596;46.826;8.650;2023-03-11T04:23:58;0.60;;;0.60;;
11084;SDS011;5596;46.826;8.650;2023-03-11T04:26:29;0.70;;;0.70;;
11084;SDS011;5596;46.826;8.650;2023-03-11T04:28:57;0.70;;;0.70;;
11084;SDS011;5596;46.826;8.650;2023-03-11T04:31:27;1.40;;;1.20;;
11084;SDS011;5596;46.826;8.650;2023-03-11T04:33:57;1.20;;;1.10;;
11084;SDS011;5596;46.826;8.650;2023-03-11T04:36:24;1.10;;;1.00;;
11084;SDS011;5596;46.826;8.650;2023-03-11T04:38:53;1.30;;;1.20;;
11084;SDS011;5596;46.826;8.650;2023-03-11T04:41:22;1.00;;;0.90;;
11084;SDS011;5596;46.826;8.650;2023-03-11T04:43:49;1.07;;;0.97;;
11084;SDS011;5596;46.826;8.650;2023-03-11T04:46:16;0.97;;;0.90;;
11084;SDS011;5596;46.826;8.650;2023-03-11T04:48:43;0.90;;;0.90;;
11084;SDS011;5596;46.826;8.650;2023-03-11T04:51:11;1.07;;;0.73;;
11084;SDS011;5596;46.826;8.650;2023-03-11T04:53:39;0.80;;;0.80;;
11084;SDS011;5596;46.826;8.650;2023-03-11T04:56:08;0.80;;;0.80;;
11084;SDS011;5596;46.826;8.650;2023-03-11T04:58:37;0.70;;;0.70;;
11084;SDS011;5596;46.826;8.650;2023-03-11T05:01:05;0.70;;;0.70;;
11084;SDS011;5596;46.826;8.650;2023-03-11T05:03:32;0.93;;;0.90;;
11084;SDS011;5596;46.826;8.650;2023-03-11T05:05:59;0.70;;;0.70;;
11084;SDS011;5596;46.826;8.650;2023-03-11T05:08:27;0.80;;;0.80;;
11084;SDS011;5596;46.826;8.650;2023-03-11T05:10:54;0.80;;;0.80;;
11084;SDS011;5596;46.826;8.650;2023-03-11T05:13:23;1.17;;;1.07;;
11084;SDS011;5596;46.826;8.650;2023-03-11T05:15:51;1.73;;;1.50;;
11084;SDS011;5596;46.826;8.650;2023-03-11T05:18:19;1.00;;;1.00;;
11084;SDS011;5596;46.826;8.650;2023-03-11T05:20:48;1.10;;;0.80;;
11084;SDS011;5596;46.826;8.650;2023-03-11T05:23:16;0.90;;;0.90;;
11084;SDS011;5596;46.826;8.650;2023-03-11T05:25:43;0.73;;;0.73;;
11084;SDS011;5596;46.826;8.650;2023-03-11T05:28:10;1.20;;;1.10;;
11084;SDS011;5596;46.826;8.650;2023-03-11T05:30:45;0.90;;;0.90;;
11084;SDS011;5596;46.826;8.650;2023-03-11T05:33:12;1.07;;;1.00;;
11084;SDS011;5596;46.826;8.650;2023-03-11T05:35:40;2.63;;;2.03;;
11084;SDS011;5596;46.826;8.650;2023-03-11T05:38:08;2.30;;;2.00;;
11084;SDS011;5596;46.826;8.650;2023-03-11T05:40:36;1.87;;;1.50;;
11084;SDS011;5596;46.826;8.650;2023-03-11T05:43:03;1.50;;;1.37;;
11084;SDS011;5596;46.826;8.650;2023-03-11T05:45:35;1.40;;;1.30;;
11084;SDS011;5596;46.826;8.650;2023-03-11T05:48:04;2.13;;;1.30;;
11084;SDS011;5596;46.826;8.650;2023-03-11T05:50:33;1.90;;;1.63;;
11084;SDS011;5596;46.826;8.650;2023-03-11T05:53:01;1.70;;;1.50;;
11084;SDS011;5596;46.826;8.650;2023-03-11T05:55:30;1.80;;;1.63;;
11084;SDS011;5596;46.826;8.650;2023-03-11T05:57:58;1.47;;;1.37;;
11084;SDS011;5596;46.826;8.650;2023-03-11T06:00:25;2.00;;;1.60;;
11084;SDS011;5596;46.826;8.650;2023-03-11T06:02:56;1.57;;;1.10;;
11084;SDS011;5596;46.826;8.650;2023-03-11T06:05:24;1.10;;;1.00;;
11084;SDS011;5596;46.826;8.650;2023-03-11T06:07:53;1.93;;;1.60;;
11084;SDS011;5596;46.826;8.650;2023-03-11T06:10:21;4.67;;;2.80;;
11084;SDS011;5596;46.826;8.650;2023-03-11T06:12:48;1.70;;;1.50;;
11084;SDS011;5596;46.826;8.650;2023-03-11T06:15:28;1.33;;;1.10;;
11084;SDS011;5596;46.826;8.650;2023-03-11T06:17:55;1.30;;;1.20;;
11084;SDS011;5596;46.826;8.650;2023-03-11T06:20:26;1.50;;;1.30;;
11084;SDS011;5596;46.826;8.650;2023-03-11T06:22:55;1.30;;;1.20;;
11084;SDS011;5596;46.826;8.650;2023-03-11T06:25:24;1.20;;;1.10;;
11084;SDS011;5596;46.826;8.650;2023-03-11T06:27:52;1.20;;;1.10;;
11084;SDS011;5596;46.826;8.650;2023-03-11T06:30:22;1.87;;;1.23;;
11084;SDS011;5596;46.826;8.650;2023-03-11T06:32:58;1.27;;;1.17;;
11084;SDS011;5596;46.826;8.650;2023-03-11T06:35:27;5.13;;;1.20;;
11084;SDS011;5596;46.826;8.650;2023-03-11T06:37:54;1.60;;;1.30;;
11084;SDS011;5596;46.826;8.650;2023-03-11T06:40:21;2.60;;;1.33;;
11084;SDS011;5596;46.826;8.650;2023-03-11T06:42:48;1.30;;;1.10;;
11084;SDS011;5596;46.826;8.650;2023-03-11T06:45:17;4.53;;;1.20;;
11084;SDS011;5596;46.826;8.650;2023-03-11T06:47:45;2.03;;;1.30;;
11084;SDS011;5596;46.826;8.650;2023-03-11T06:50:13;2.00;;;1.60;;
11084;SDS011;5596;46.826;8.650;2023-03-11T06:52:41;1.70;;;1.40;;
11084;SDS011;5596;46.826;8.650;2023-03-11T06:55:08;1.40;;;1.30;;
11084;SDS011;5596;46.826;8.650;2023-03-11T06:57:36;1.20;;;1.10;;
11084;SDS011;5596;46.826;8.650;2023-03-11T07:00:07;2.87;;;1.30;;
11084;SDS011;5596;46.826;8.650;2023-03-11T07:02:37;1.50;;;1.40;;
11084;SDS011;5596;46.826;8.650;2023-03-11T07:05:04;1.30;;;1.20;;
11084;SDS011;5596;46.826;8.650;2023-03-11T07:07:37;1.37;;;1.27;;
11084;SDS011;5596;46.826;8.650;2023-03-11T07:10:32;2.53;;;1.30;;
11084;SDS011;5596;46.826;8.650;2023-03-11T07:15:35;8.10;;;2.30;;
11084;SDS011;5596;46.826;8.650;2023-03-11T07:18:03;3.03;;;2.10;;
11084;SDS011;5596;46.826;8.650;2023-03-11T07:20:30;4.00;;;2.13;;
11084;SDS011;5596;46.826;8.650;2023-03-11T07:22:57;3.53;;;2.57;;
11084;SDS011;5596;46.826;8.650;2023-03-11T07:25:26;5.63;;;2.57;;
11084;SDS011;5596;46.826;8.650;2023-03-11T07:27:53;3.10;;;2.70;;
11084;SDS011;5596;46.826;8.650;2023-03-11T07:30:20;3.43;;;2.70;;
11084;SDS011;5596;46.826;8.650;2023-03-11T07:32:47;4.70;;;2.87;;
11084;SDS011;5596;46.826;8.650;2023-03-11T07:35:14;5.33;;;3.13;;
11084;SDS011;5596;46.826;8.650;2023-03-11T07:37:42;4.37;;;2.80;;
11084;SDS011;5596;46.826;8.650;2023-03-11T07:40:09;5.37;;;3.23;;
11084;SDS011;5596;46.826;8.650;2023-03-11T07:42:39;3.83;;;3.17;;
11084;SDS011;5596;46.826;8.650;2023-03-11T07:45:06;3.50;;;3.13;;
11084;SDS011;5596;46.826;8.650;2023-03-11T07:47:34;3.40;;;2.70;;
11084;SDS011;5596;46.826;8.650;2023-03-11T07:50:01;3.43;;;2.90;;
11084;SDS011;5596;46.826;8.650;2023-03-11T07:52:29;7.87;;;3.70;;
11084;SDS011;5596;46.826;8.650;2023-03-11T07:54:56;10.53;;;5.77;;
11084;SDS011;5596;46.826;8.650;2023-03-11T07:57:23;8.20;;;5.60;;
11084;SDS011;5596;46.826;8.650;2023-03-11T07:59:52;6.80;;;5.43;;
11084;SDS011;5596;46.826;8.650;2023-03-11T08:02:19;6.67;;;4.90;;
11084;SDS011;5596;46.826;8.650;2023-03-11T08:04:46;5.93;;;4.73;;
11084;SDS011;5596;46.826;8.650;2023-03-11T08:07:13;6.20;;;5.13;;
11084;SDS011;5596;46.826;8.650;2023-03-11T08:09:40;9.27;;;6.00;;
11084;SDS011;5596;46.826;8.650;2023-03-11T08:12:08;7.00;;;5.33;;
11084;SDS011;5596;46.826;8.650;2023-03-11T08:14:35;4.50;;;4.00;;
11084;SDS011;5596;46.826;8.650;2023-03-11T08:17:05;3.83;;;3.40;;
11084;SDS011;5596;46.826;8.650;2023-03-11T08:19:32;6.33;;;3.43;;
11084;SDS011;5596;46.826;8.650;2023-03-11T08:22:00;5.13;;;3.00;;
11084;SDS011;5596;46.826;8.650;2023-03-11T08:24:27;5.23;;;3.03;;
11084;SDS011;5596;46.826;8.650;2023-03-11T08:26:55;6.13;;;2.77;;
11084;SDS011;5596;46.826;8.650;2023-03-11T08:29:22;1.87;;;1.77;;
11084;SDS011;5596;46.826;8.650;2023-03-11T08:31:50;3.50;;;2.07;;
11084;SDS011;5596;46.826;8.650;2023-03-11T08:34:18;2.50;;;1.77;;
11084;SDS011;5596;46.826;8.650;2023-03-11T08:36:45;2.07;;;1.80;;
11084;SDS011;5596;46.826;8.650;2023-03-11T08:39:12;2.33;;;2.13;;
11084;SDS011;5596;46.826;8.650;2023-03-11T08:41:39;3.10;;;2.07;;
11084;SDS011;5596;46.826;8.650;2023-03-11T08:44:06;5.10;;;1.87;;
11084;SDS011;5596;46.826;8.650;2023-03-11T08:46:35;3.03;;;2.20;;
11084;SDS011;5596;46.826;8.650;2023-03-11T08:49:04;3.37;;;1.73;;
11084;SDS011;5596;46.826;8.650;2023-03-11T08:51:33;2.77;;;1.80;;
11084;SDS011;5596;46.826;8.650;2023-03-11T08:54:00;6.00;;;1.70;;
11084;SDS011;5596;46.826;8.650;2023-03-11T08:56:28;3.13;;;1.63;;
11084;SDS011;5596;46.826;8.650;2023-03-11T08:58:56;1.90;;;1.70;;
11084;SDS011;5596;46.826;8.650;2023-03-11T09:01:24;1.80;;;1.63;;
11084;SDS011;5596;46.826;8.650;2023-03-11T09:03:54;9.00;;;2.90;;
11084;SDS011;5596;46.826;8.650;2023-03-11T09:06:21;5.10;;;2.47;;
11084;SDS011;5596;46.826;8.650;2023-03-11T09:08:51;4.80;;;3.77;;
11084;SDS011;5596;46.826;8.650;2023-03-11T09:11:18;6.23;;;4.10;;
11084;SDS011;5596;46.826;8.650;2023-03-11T09:13:46;6.67;;;5.20;;
11084;SDS011;5596;46.826;8.650;2023-03-11T09:16:15;7.03;;;5.63;;
11084;SDS011;5596;46.826;8.650;2023-03-11T09:18:43;5.17;;;4.10;;
11084;SDS011;5596;46.826;8.650;2023-03-11T09:21:10;7.97;;;4.60;;
11084;SDS011;5596;46.826;8.650;2023-03-11T09:23:41;5.50;;;4.23;;
11084;SDS011;5596;46.826;8.650;2023-03-11T09:26:09;6.50;;;4.70;;
11084;SDS011;5596;46.826;8.650;2023-03-11T09:28:36;10.33;;;6.30;;
11084;SDS011;5596;46.826;8.650;2023-03-11T09:31:04;10.67;;;5.87;;
11084;SDS011;5596;46.826;8.650;2023-03-11T09:33:34;8.10;;;5.70;;
11084;SDS011;5596;46.826;8.650;2023-03-11T09:36:02;12.63;;;8.47;;
11084;SDS011;5596;46.826;8.650;2023-03-11T09:38:31;17.50;;;10.23;;
11084;SDS011;5596;46.826;8.650;2023-03-11T09:40:58;16.93;;;9.97;;
11084;SDS011;5596;46.826;8.650;2023-03-11T09:43:37;19.67;;;10.67;;
11084;SDS011;5596;46.826;8.650;2023-03-11T09:46:19;10.87;;;8.20;;
11084;SDS011;5596;46.826;8.650;2023-03-11T09:48:58;8.13;;;5.63;;
11084;SDS011;5596;46.826;8.650;2023-03-11T09:51:35;7.23;;;5.53;;
11084;SDS011;5596;46.826;8.650;2023-03-11T09:54:08;11.43;;;8.50;;
11084;SDS011;5596;46.826;8.650;2023-03-11T09:56:38;12.87;;;9.87;;
11084;SDS011;5596;46.826;8.650;2023-03-11T09:59:14;13.20;;;9.70;;
11084;SDS011;5596;46.826;8.650;2023-03-11T10:01:45;12.47;;;10.10;;
11084;SDS011;5596;46.826;8.650;2023-03-11T10:04:18;11.47;;;7.67;;
11084;SDS011;5596;46.826;8.650;2023-03-11T10:06:51;10.33;;;7.13;;
11084;SDS011;5596;46.826;8.650;2023-03-11T10:12:09;13.03;;;8.83;;
11084;SDS011;5596;46.826;8.650;2023-03-11T10:14:47;14.90;;;7.73;;
11084;SDS011;5596;46.826;8.650;2023-03-11T10:17:26;12.37;;;6.30;;
11084;SDS011;5596;46.826;8.650;2023-03-11T10:20:07;12.87;;;7.10;;
11084;SDS011;5596;46.826;8.650;2023-03-11T10:22:41;21.30;;;11.20;;
11084;SDS011;5596;46.826;8.650;2023-03-11T10:25:16;20.00;;;9.60;;
11084;SDS011;5596;46.826;8.650;2023-03-11T10:27:48;10.77;;;7.17;;
11084;SDS011;5596;46.826;8.650;2023-03-11T10:30:24;16.27;;;7.60;;
11084;SDS011;5596;46.826;8.650;2023-03-11T10:32:56;17.67;;;8.23;;
11084;SDS011;5596;46.826;8.650;2023-03-11T10:35:32;17.47;;;8.17;;
11084;SDS011;5596;46.826;8.650;2023-03-11T10:38:04;10.93;;;7.33;;
11084;SDS011;5596;46.826;8.650;2023-03-11T10:40:41;16.47;;;8.70;;
11084;SDS011;5596;46.826;8.650;2023-03-11T10:43:10;13.13;;;7.77;;
11084;SDS011;5596;46.826;8.650;2023-03-11T10:45:43;12.40;;;7.83;;
11084;SDS011;5596;46.826;8.650;2023-03-11T10:48:13;14.00;;;7.90;;
11084;SDS011;5596;46.826;8.650;2023-03-11T10:50:45;13.23;;;6.80;;
11084;SDS011;5596;46.826;8.650;2023-03-11T10:53:17;10.57;;;6.70;;
11084;SDS011;5596;46.826;8.650;2023-03-11T10:55:46;9.30;;;7.00;;
11084;SDS011;5596;46.826;8.650;2023-03-11T10:58:21;10.87;;;6.67;;
11084;SDS011;5596;46.826;8.650;2023-03-11T11:01:00;11.40;;;7.83;;
11084;SDS011;5596;46.826;8.650;2023-03-11T11:03:30;9.90;;;7.33;;
11084;SDS011;5596;46.826;8.650;2023-03-11T11:05:59;9.53;;;6.30;;
11084;SDS011;5596;46.826;8.650;2023-03-11T11:08:27;9.73;;;6.50;;
11084;SDS011;5596;46.826;8.650;2023-03-11T11:10:55;8.37;;;6.10;;
11084;SDS011;5596;46.826;8.650;2023-03-11T11:13:24;10.57;;;6.87;;
11084;SDS011;5596;46.826;8.650;2023-03-11T11:15:55;8.97;;;6.20;;
11084;SDS011;5596;46.826;8.650;2023-03-11T11:18:27;10.57;;;5.87;;
11084;SDS011;5596;46.826;8.650;2023-03-11T11:21:01;7.50;;;5.93;;
11084;SDS011;5596;46.826;8.650;2023-03-11T11:23:31;7.97;;;5.83;;
11084;SDS011;5596;46.826;8.650;2023-03-11T11:26:03;8.23;;;5.87;;
11084;SDS011;5596;46.826;8.650;2023-03-11T11:28:33;11.53;;;6.87;;
11084;SDS011;5596;46.826;8.650;2023-03-11T11:31:00;9.47;;;6.17;;
11084;SDS011;5596;46.826;8.650;2023-03-11T11:33:32;13.13;;;7.60;;
11084;SDS011;5596;46.826;8.650;2023-03-11T11:36:05;10.50;;;7.50;;
11084;SDS011;5596;46.826;8.650;2023-03-11T11:38:39;9.70;;;6.80;;
11084;SDS011;5596;46.826;8.650;2023-03-11T11:41:08;9.87;;;6.97;;
11084;SDS011;5596;46.826;8.650;2023-03-11T11:43:45;9.53;;;6.43;;
11084;SDS011;5596;46.826;8.650;2023-03-11T11:46:19;11.07;;;6.83;;
11084;SDS011;5596;46.826;8.650;2023-03-11T11:48:57;13.20;;;8.10;;
11084;SDS011;5596;46.826;8.650;2023-03-11T11:51:32;9.90;;;6.97;;
11084;SDS011;5596;46.826;8.650;2023-03-11T11:54:01;12.13;;;7.83;;
11084;SDS011;5596;46.826;8.650;2023-03-11T11:56:37;14.33;;;7.87;;
11084;SDS011;5596;46.826;8.650;2023-03-11T11:59:07;11.67;;;8.33;;
11084;SDS011;5596;46.826;8.650;2023-03-11T12:01:41;11.57;;;7.83;;
11084;SDS011;5596;46.826;8.650;2023-03-11T12:04:41;11.70;;;7.87;;
11084;SDS011;5596;46.826;8.650;2023-03-11T12:07:17;10.47;;;6.90;;
11084;SDS011;5596;46.826;8.650;2023-03-11T12:10:08;7.90;;;5.50;;
11084;SDS011;5596;46.826;8.650;2023-03-11T12:12:43;9.73;;;6.27;;
11084;SDS011;5596;46.826;8.650;2023-03-11T12:15:21;8.87;;;6.17;;
11084;SDS011;5596;46.826;8.650;2023-03-11T12:17:53;10.83;;;5.80;;
11084;SDS011;5596;46.826;8.650;2023-03-11T12:20:29;7.57;;;4.90;;
11084;SDS011;5596;46.826;8.650;2023-03-11T12:26:11;8.20;;;4.90;;
11084;SDS011;5596;46.826;8.650;2023-03-11T12:28:42;8.63;;;4.67;;
11084;SDS011;5596;46.826;8.650;2023-03-11T12:31:14;7.33;;;5.37;;
11084;SDS011;5596;46.826;8.650;2023-03-11T12:33:42;6.57;;;5.20;;
11084;SDS011;5596;46.826;8.650;2023-03-11T12:36:24;7.40;;;5.30;;
11084;SDS011;5596;46.826;8.650;2023-03-11T12:38:56;6.97;;;5.43;;
11084;SDS011;5596;46.826;8.650;2023-03-11T12:41:26;7.07;;;5.50;;
11084;SDS011;5596;46.826;8.650;2023-03-11T12:43:59;6.23;;;5.03;;
11084;SDS011;5596;46.826;8.650;2023-03-11T12:49:36;5.43;;;3.97;;
11084;SDS011;5596;46.826;8.650;2023-03-11T12:52:16;3.77;;;3.20;;
11084;SDS011;5596;46.826;8.650;2023-03-11T12:54:48;4.37;;;3.17;;
11084;SDS011;5596;46.826;8.650;2023-03-11T12:58:25;3.97;;;3.40;;
11084;SDS011;5596;46.826;8.650;2023-03-11T13:01:16;4.03;;;3.00;;
11084;SDS011;5596;46.826;8.650;2023-03-11T13:03:58;4.57;;;3.60;;
11084;SDS011;5596;46.826;8.650;2023-03-11T13:06:39;6.40;;;3.90;;
11084;SDS011;5596;46.826;8.650;2023-03-11T13:09:23;4.73;;;3.73;;
11084;SDS011;5596;46.826;8.650;2023-03-11T13:11:50;3.80;;;3.40;;
11084;SDS011;5596;46.826;8.650;2023-03-11T13:14:28;4.33;;;3.50;;
11084;SDS011;5596;46.826;8.650;2023-03-11T13:17:17;4.30;;;3.73;;
11084;SDS011;5596;46.826;8.650;2023-03-11T13:19:51;8.20;;;4.27;;
11084;SDS011;5596;46.826;8.650;2023-03-11T13:28:12;12.07;;;6.10;;
11084;SDS011;5596;46.826;8.650;2023-03-11T13:30:55;8.50;;;4.53;;
11084;SDS011;5596;46.826;8.650;2023-03-11T13:33:32;8.57;;;4.80;;
11084;SDS011;5596;46.826;8.650;2023-03-11T13:36:13;5.43;;;3.80;;
11084;SDS011;5596;46.826;8.650;2023-03-11T13:42:12;8.33;;;4.03;;
11084;SDS011;5596;46.826;8.650;2023-03-11T13:44:43;9.73;;;4.53;;
11084;SDS011;5596;46.826;8.650;2023-03-11T13:47:12;8.37;;;5.73;;
11084;SDS011;5596;46.826;8.650;2023-03-11T13:49:41;12.23;;;6.47;;
11084;SDS011;5596;46.826;8.650;2023-03-11T13:52:12;6.87;;;4.97;;
11084;SDS011;5596;46.826;8.650;2023-03-11T13:54:43;5.57;;;4.33;;
11084;SDS011;5596;46.826;8.650;2023-03-11T13:57:21;10.30;;;6.30;;
11084;SDS011;5596;46.826;8.650;2023-03-11T13:59:51;8.30;;;5.40;;
11084;SDS011;5596;46.826;8.650;2023-03-11T14:02:20;7.53;;;4.50;;
11084;SDS011;5596;46.826;8.650;2023-03-11T14:04:50;7.50;;;5.30;;
11084;SDS011;5596;46.826;8.650;2023-03-11T14:07:21;7.33;;;4.27;;
11084;SDS011;5596;46.826;8.650;2023-03-11T14:09:50;6.10;;;3.97;;
11084;SDS011;5596;46.826;8.650;2023-03-11T14:12:33;4.10;;;3.50;;
11084;SDS011;5596;46.826;8.650;2023-03-11T14:15:01;8.47;;;4.20;;
11084;SDS011;5596;46.826;8.650;2023-03-11T14:17:33;6.30;;;4.10;;
11084;SDS011;5596;46.826;8.650;2023-03-11T14:20:01;5.57;;;4.47;;
11084;SDS011;5596;46.826;8.650;2023-03-11T14:22:31;4.37;;;3.77;;
11084;SDS011;5596;46.826;8.650;2023-03-11T14:24:59;6.63;;;4.20;;
11084;SDS011;5596;46.826;8.650;2023-03-11T14:27:30;7.20;;;4.47;;
11084;SDS011;5596;46.826;8.650;2023-03-11T14:29:59;5.83;;;4.10;;
11084;SDS011;5596;46.826;8.650;2023-03-11T14:32:27;6.33;;;4.33;;
11084;SDS011;5596;46.826;8.650;2023-03-11T14:34:55;6.03;;;3.70;;
11084;SDS011;5596;46.826;8.650;2023-03-11T14:37:24;4.93;;;3.87;;
11084;SDS011;5596;46.826;8.650;2023-03-11T14:39:55;7.10;;;4.10;;
11084;SDS011;5596;46.826;8.650;2023-03-11T14:42:23;7.40;;;4.20;;
11084;SDS011;5596;46.826;8.650;2023-03-11T14:44:56;7.00;;;4.43;;
11084;SDS011;5596;46.826;8.650;2023-03-11T14:47:31;7.57;;;4.37;;
11084;SDS011;5596;46.826;8.650;2023-03-11T14:50:04;6.23;;;3.90;;
11084;SDS011;5596;46.826;8.650;2023-03-11T14:52:37;5.50;;;4.53;;
11084;SDS011;5596;46.826;8.650;2023-03-11T14:55:11;6.20;;;3.97;;
11084;SDS011;5596;46.826;8.650;2023-03-11T14:57:41;6.40;;;3.97;;
11084;SDS011;5596;46.826;8.650;2023-03-11T15:00:18;7.00;;;4.60;;
11084;SDS011;5596;46.826;8.650;2023-03-11T15:03:01;7.10;;;4.53;;
11084;SDS011;5596;46.826;8.650;2023-03-11T15:05:41;8.53;;;4.70;;
11084;SDS011;5596;46.826;8.650;2023-03-11T15:08:14;6.13;;;4.27;;
11084;SDS011;5596;46.826;8.650;2023-03-11T15:10:59;6.17;;;3.20;;
11084;SDS011;5596;46.826;8.650;2023-03-11T15:13:28;5.87;;;3.60;;
11084;SDS011;5596;46.826;8.650;2023-03-11T15:15:57;6.23;;;4.17;;
11084;SDS011;5596;46.826;8.650;2023-03-11T15:18:27;4.20;;;3.70;;
11084;SDS011;5596;46.826;8.650;2023-03-11T15:21:11;4.90;;;4.40;;
11084;SDS011;5596;46.826;8.650;2023-03-11T15:23:43;5.17;;;4.43;;
11084;SDS011;5596;46.826;8.650;2023-03-11T15:26:21;6.23;;;4.70;;
11084;SDS011;5596;46.826;8.650;2023-03-11T15:28:55;6.53;;;4.53;;
11084;SDS011;5596;46.826;8.650;2023-03-11T15:31:29;8.37;;;4.07;;
11084;SDS011;5596;46.826;8.650;2023-03-11T15:34:20;4.83;;;3.63;;
11084;SDS011;5596;46.826;8.650;2023-03-11T15:37:03;4.93;;;3.80;;
11084;SDS011;5596;46.826;8.650;2023-03-11T15:39:43;4.60;;;3.30;;
11084;SDS011;5596;46.826;8.650;2023-03-11T15:42:14;5.40;;;4.90;;
11084;SDS011;5596;46.826;8.650;2023-03-11T15:45:00;7.87;;;5.33;;
11084;SDS011;5596;46.826;8.650;2023-03-11T15:47:31;7.40;;;5.93;;